createdAt,value
2023-04-09T00:01:05.775Z,81.32
2023-04-09T00:04:10.871Z,81.60
2023-04-09T00:07:14.691Z,81.41
2023-04-09T00:10:18.176Z,80.06
2023-04-09T00:13:35.539Z,80.00
2023-04-09T00:16:42.109Z,79.96
2023-04-09T00:19:47.022Z,80.39
2023-04-09T00:22:51.892Z,80.18
2023-04-09T00:25:55.364Z,81.24
2023-04-09T00:28:58.894Z,81.41
2023-04-09T00:32:02.976Z,81.57
2023-04-09T00:35:08.972Z,81.76
2023-04-09T00:38:12.480Z,82.00
2023-04-09T00:41:15.996Z,82.11
2023-04-09T00:44:19.454Z,82.67
2023-04-09T00:47:23.173Z,83.05
2023-04-09T00:50:28.088Z,83.54
2023-04-09T00:53:31.691Z,83.16
2023-04-09T00:56:37.109Z,82.17
2023-04-09T00:59:40.795Z,81.67
2023-04-09T01:02:45.372Z,81.73
2023-04-09T01:06:01.776Z,81.11
2023-04-09T01:09:11.753Z,82.30
2023-04-09T01:12:27.295Z,81.98
2023-04-09T01:15:36.421Z,82.45
2023-04-09T01:18:50.870Z,81.92
2023-04-09T01:21:59.156Z,81.72
2023-04-09T01:25:14.984Z,81.59
2023-04-09T01:28:26.298Z,81.82
2023-04-09T01:31:33.740Z,81.40
2023-04-09T01:34:38.971Z,81.45
2023-04-09T01:37:43.686Z,81.58
2023-04-09T01:40:48.607Z,81.58
2023-04-09T01:43:54.703Z,81.75
2023-04-09T01:47:00.244Z,81.52
2023-04-09T01:50:04.658Z,81.84
2023-04-09T01:53:09.351Z,82.24
2023-04-09T01:56:13.001Z,83.75
2023-04-09T01:59:17.956Z,84.06
2023-04-09T02:02:29.337Z,83.90
2023-04-09T02:05:38.949Z,83.68
2023-04-09T02:08:46.625Z,83.23
2023-04-09T02:11:51.440Z,83.17
2023-04-09T02:14:56.554Z,83.12
2023-04-09T02:18:00.288Z,83.48
2023-04-09T02:21:06.903Z,81.25
2023-04-09T02:24:10.690Z,79.77
2023-04-09T02:27:14.591Z,79.94
2023-04-09T02:30:19.407Z,81.38
2023-04-09T02:33:23.000Z,82.57
2023-04-09T02:36:27.809Z,81.89
2023-04-09T02:39:32.042Z,82.42
2023-04-09T02:42:35.491Z,81.66
2023-04-09T02:45:40.463Z,82.73
2023-04-09T02:48:43.893Z,82.98
2023-04-09T02:51:47.504Z,82.51
2023-04-09T02:54:50.960Z,81.66
2023-04-09T02:57:54.550Z,81.87
2023-04-09T03:00:59.724Z,81.81
2023-04-09T03:04:03.516Z,81.66
2023-04-09T03:07:07.255Z,80.64
2023-04-09T03:10:11.762Z,80.83
2023-04-09T03:13:15.285Z,80.47
2023-04-09T03:16:20.188Z,80.36
2023-04-09T03:19:23.675Z,78.32
2023-04-09T03:22:27.340Z,79.23
2023-04-09T03:25:30.963Z,79.40
2023-04-09T03:28:35.435Z,79.16
2023-04-09T03:31:41.021Z,79.30
2023-04-09T03:34:44.882Z,78.72
2023-04-09T03:37:49.163Z,77.66
2023-04-09T03:40:54.841Z,78.03
2023-04-09T03:43:58.348Z,78.36
2023-04-09T03:47:08.819Z,77.42
2023-04-09T03:50:14.730Z,77.45
2023-04-09T03:53:27.835Z,77.54
2023-04-09T03:56:38.002Z,77.26
2023-04-09T03:59:45.373Z,77.60
2023-04-09T04:02:53.690Z,77.01
2023-04-09T04:06:17.305Z,77.20
2023-04-09T04:09:39.277Z,78.55
2023-04-09T04:12:48.273Z,78.95
2023-04-09T04:16:02.709Z,79.43
2023-04-09T04:19:07.619Z,80.18
2023-04-09T04:22:17.820Z,79.82
2023-04-09T04:25:24.405Z,80.07
2023-04-09T04:28:28.161Z,80.16
2023-04-09T04:31:32.265Z,80.73
2023-04-09T04:34:38.037Z,80.88
2023-04-09T04:37:52.022Z,81.08
2023-04-09T04:40:57.238Z,81.18
2023-04-09T04:44:01.638Z,80.80
2023-04-09T04:47:05.435Z,81.23
2023-04-09T04:50:11.680Z,81.05
2023-04-09T04:53:28.320Z,81.80
2023-04-09T04:56:34.816Z,81.36
2023-04-09T04:59:44.650Z,81.09
2023-04-09T05:02:50.281Z,80.90
2023-04-09T05:06:01.346Z,80.18
2023-04-09T05:09:12.411Z,80.32
2023-04-09T05:12:33.157Z,80.80
2023-04-09T05:15:40.630Z,81.07
2023-04-09T05:18:45.323Z,81.66
2023-04-09T05:21:50.224Z,81.84
2023-04-09T05:24:58.106Z,82.13
2023-04-09T05:28:02.674Z,82.46
2023-04-09T05:31:12.983Z,82.43
2023-04-09T05:34:22.322Z,82.57
2023-04-09T05:37:30.517Z,82.97
2023-04-09T05:40:34.361Z,82.84
2023-04-09T05:43:40.667Z,83.24
2023-04-09T05:46:44.146Z,83.33
2023-04-09T05:49:49.701Z,82.84
2023-04-09T05:52:55.622Z,83.02
2023-04-09T05:56:05.639Z,82.40
2023-04-09T05:59:22.995Z,82.41
2023-04-09T06:02:26.870Z,82.63
2023-04-09T06:05:30.892Z,82.78
2023-04-09T06:08:35.642Z,82.55
2023-04-09T06:11:39.088Z,82.95
2023-04-09T06:14:43.016Z,82.67
2023-04-09T06:17:46.718Z,82.89
2023-04-09T06:20:50.142Z,81.97
2023-04-09T06:23:55.166Z,82.51
2023-04-09T06:26:58.620Z,82.33
2023-04-09T06:30:01.997Z,81.33
2023-04-09T06:33:05.707Z,81.05
2023-04-09T06:36:09.523Z,80.47
2023-04-09T06:39:14.700Z,81.30
2023-04-09T06:42:18.141Z,79.68
2023-04-09T06:45:35.151Z,79.34
2023-04-09T06:48:39.069Z,79.90
2023-04-09T06:51:42.488Z,80.01
2023-04-09T06:54:47.589Z,79.13
2023-04-09T06:57:51.383Z,79.75
2023-04-09T07:00:55.077Z,79.77
2023-04-09T07:03:58.910Z,79.78
2023-04-09T07:07:02.445Z,80.95
2023-04-09T07:10:08.605Z,80.04
2023-04-09T07:13:11.972Z,80.20
2023-04-09T07:16:15.817Z,79.35
2023-04-09T07:19:19.239Z,80.07
2023-04-09T07:22:23.208Z,79.50
2023-04-09T07:25:28.424Z,79.83
2023-04-09T07:28:32.060Z,79.44
2023-04-09T07:31:36.257Z,80.40
2023-04-09T07:34:39.672Z,80.61
2023-04-09T07:37:43.271Z,79.93
2023-04-09T07:40:48.602Z,80.69
2023-04-09T07:43:52.130Z,80.87
2023-04-09T07:46:55.458Z,79.92
2023-04-09T07:49:58.896Z,79.09
2023-04-09T07:53:02.459Z,78.99
2023-04-09T07:56:08.217Z,79.15
2023-04-09T07:59:11.655Z,78.47
2023-04-09T08:02:15.822Z,78.45
2023-04-09T08:05:19.232Z,77.78
2023-04-09T08:08:22.654Z,77.52
2023-04-09T08:11:27.540Z,78.59
2023-04-09T08:14:30.855Z,77.08
2023-04-09T08:17:36.903Z,77.52
2023-04-09T08:20:45.241Z,77.02
2023-04-09T08:23:48.895Z,76.36
2023-04-09T08:26:54.663Z,76.49
2023-04-09T08:29:58.077Z,75.36
2023-04-09T08:33:02.269Z,74.74
2023-04-09T08:36:11.525Z,74.32
2023-04-09T08:39:14.957Z,74.64
2023-04-09T08:42:21.063Z,75.22
2023-04-09T08:45:24.855Z,76.07
2023-04-09T08:48:28.612Z,75.73
2023-04-09T08:51:32.117Z,75.67
2023-04-09T08:54:35.903Z,74.77
2023-04-09T08:57:41.251Z,75.94
2023-04-09T09:00:44.773Z,76.59
2023-04-09T09:03:59.582Z,76.10
2023-04-09T09:07:07.950Z,76.41
2023-04-09T09:10:11.411Z,77.12
2023-04-09T09:13:21.418Z,77.11
2023-04-09T09:16:24.884Z,75.31
2023-04-09T09:19:31.664Z,75.31
2023-04-09T09:22:54.906Z,75.44
2023-04-09T09:25:58.837Z,75.86
2023-04-09T09:29:06.037Z,76.75
2023-04-09T09:32:15.668Z,78.87
2023-04-09T09:35:19.168Z,79.03
2023-04-09T09:38:23.069Z,80.32
2023-04-09T09:41:27.501Z,81.81
2023-04-09T09:44:35.450Z,81.87
2023-04-09T09:47:39.088Z,81.72
2023-04-09T09:50:43.785Z,81.42
2023-04-09T09:53:49.804Z,80.57
2023-04-09T09:56:56.024Z,81.20
2023-04-09T10:00:04.215Z,80.22
2023-04-09T10:03:17.262Z,80.00
2023-04-09T10:06:21.160Z,79.73
2023-04-09T10:09:25.222Z,78.58
2023-04-09T10:12:29.163Z,79.46
2023-04-09T10:15:34.382Z,79.44
2023-04-09T10:18:38.993Z,79.36
2023-04-09T10:21:49.900Z,78.06
2023-04-09T10:24:54.341Z,79.56
2023-04-09T10:28:17.474Z,79.45
2023-04-09T10:31:22.525Z,78.49
2023-04-09T10:34:29.502Z,78.09
2023-04-09T10:37:33.147Z,78.54
2023-04-09T10:40:37.095Z,77.01
2023-04-09T10:43:40.822Z,76.86
2023-04-09T10:46:47.632Z,77.47
2023-04-09T10:49:51.751Z,77.37
2023-04-09T10:52:57.721Z,77.67
2023-04-09T10:56:02.194Z,77.83
2023-04-09T10:59:05.881Z,78.59
2023-04-09T11:02:19.453Z,77.48
2023-04-09T11:05:44.760Z,77.85
2023-04-09T11:08:48.552Z,76.85
2023-04-09T11:11:54.650Z,77.10
2023-04-09T11:14:58.234Z,78.15
2023-04-09T11:18:04.055Z,77.72
2023-04-09T11:21:09.706Z,76.36
2023-04-09T11:24:13.744Z,77.62
2023-04-09T11:27:19.631Z,77.71
2023-04-09T11:30:23.329Z,77.34
2023-04-09T11:33:34.897Z,77.51
2023-04-09T11:36:39.045Z,76.66
2023-04-09T11:39:45.648Z,75.03
2023-04-09T11:42:52.212Z,76.32
2023-04-09T11:45:57.480Z,76.38
2023-04-09T11:49:02.952Z,76.39
2023-04-09T11:52:06.962Z,76.13
2023-04-09T11:55:11.589Z,76.19
2023-04-09T11:58:17.720Z,75.75
2023-04-09T12:01:23.949Z,75.04
2023-04-09T12:04:29.178Z,74.41
2023-04-09T12:07:34.412Z,74.10
2023-04-09T12:10:40.169Z,71.78
2023-04-09T12:13:44.862Z,72.69
2023-04-09T12:16:52.654Z,73.47
2023-04-09T12:19:58.768Z,74.13
2023-04-09T12:23:04.108Z,74.93
2023-04-09T12:26:07.643Z,74.79
2023-04-09T12:29:11.064Z,74.31
2023-04-09T12:32:14.548Z,76.01
2023-04-09T12:35:19.415Z,75.85
2023-04-09T12:38:22.842Z,76.74
2023-04-09T12:41:26.496Z,76.47
2023-04-09T12:44:29.886Z,76.66
2023-04-09T12:47:33.579Z,77.65
2023-04-09T12:50:38.465Z,77.09
2023-04-09T12:53:42.011Z,76.36
2023-04-09T12:56:46.233Z,78.41
2023-04-09T12:59:49.926Z,78.05
2023-04-09T13:02:53.612Z,76.85
2023-04-09T13:05:58.644Z,77.64
2023-04-09T13:09:01.987Z,77.31
2023-04-09T13:12:05.912Z,77.79
2023-04-09T13:15:09.886Z,76.44
2023-04-09T13:18:14.178Z,76.04
2023-04-09T13:21:19.041Z,75.76
2023-04-09T13:24:22.413Z,76.16
2023-04-09T13:27:25.906Z,74.24
2023-04-09T13:30:29.611Z,73.66
2023-04-09T13:33:32.960Z,74.00
2023-04-09T13:36:38.293Z,73.73
2023-04-09T13:39:41.739Z,73.49
2023-04-09T13:42:45.635Z,73.45
2023-04-09T13:45:50.010Z,73.13
2023-04-09T13:48:55.060Z,72.67
2023-04-09T13:52:01.361Z,73.30
2023-04-09T13:55:05.021Z,71.68
2023-04-09T13:58:08.467Z,72.41
2023-04-09T14:01:12.129Z,73.92
2023-04-09T14:04:15.866Z,73.75
2023-04-09T14:07:21.193Z,75.53
2023-04-09T14:10:24.460Z,76.01
2023-04-09T14:13:28.270Z,75.85
2023-04-09T14:16:32.027Z,75.25
2023-04-09T14:19:35.572Z,75.02
2023-04-09T14:22:41.556Z,74.85
2023-04-09T14:25:45.957Z,74.80
2023-04-09T14:28:49.340Z,74.35
2023-04-09T14:31:53.901Z,74.73
2023-04-09T14:34:58.351Z,75.84
2023-04-09T14:38:04.653Z,77.02
2023-04-09T14:41:08.230Z,77.78
2023-04-09T14:44:13.038Z,77.36
2023-04-09T14:47:16.643Z,76.66
2023-04-09T14:50:20.726Z,76.59
2023-04-09T14:53:25.561Z,76.95
2023-04-09T14:56:28.989Z,77.24
2023-04-09T14:59:32.476Z,75.93
2023-04-09T15:02:36.517Z,77.19
2023-04-09T15:05:40.156Z,76.78
2023-04-09T15:08:46.255Z,77.58
2023-04-09T15:11:49.603Z,77.46
2023-04-09T15:14:52.862Z,78.51
2023-04-09T15:17:56.268Z,79.35
2023-04-09T15:20:59.574Z,79.38
2023-04-09T15:24:04.236Z,79.17
2023-04-09T15:27:07.612Z,78.92
2023-04-09T15:30:11.107Z,78.78
2023-04-09T15:33:14.785Z,79.30
2023-04-09T15:36:19.606Z,80.48
2023-04-09T15:39:28.440Z,81.40
2023-04-09T15:42:31.988Z,81.27
2023-04-09T15:45:35.323Z,81.56
2023-04-09T15:48:39.284Z,81.71
2023-04-09T15:51:43.069Z,81.50
2023-04-09T15:54:47.942Z,81.75
2023-04-09T15:57:51.470Z,82.48
2023-04-09T16:00:55.000Z,82.61
2023-04-09T16:03:58.392Z,81.38
2023-04-09T16:07:02.469Z,82.31
2023-04-09T16:10:08.425Z,82.40
2023-04-09T16:13:12.105Z,82.06
2023-04-09T16:16:15.501Z,82.93
2023-04-09T16:19:19.130Z,83.20
2023-04-09T16:22:23.044Z,82.86
2023-04-09T16:25:27.937Z,82.24
2023-04-09T16:28:31.372Z,82.72
2023-04-09T16:31:35.087Z,81.96
2023-04-09T16:34:38.697Z,81.28
2023-04-09T16:37:42.207Z,81.90
2023-04-09T16:40:50.172Z,82.34
2023-04-09T16:43:54.091Z,83.38
2023-04-09T16:47:01.988Z,83.32
2023-04-09T16:50:10.501Z,83.65
2023-04-09T16:53:13.852Z,83.68
2023-04-09T16:56:19.061Z,84.05
2023-04-09T16:59:22.669Z,84.41
2023-04-09T17:02:29.277Z,84.36
2023-04-09T17:05:35.585Z,84.23
2023-04-09T17:08:39.071Z,84.45
2023-04-09T17:11:44.750Z,84.54
2023-04-09T17:14:48.256Z,84.45
2023-04-09T17:17:55.642Z,84.49
2023-04-09T17:20:59.877Z,84.06
2023-04-09T17:24:03.921Z,84.11
2023-04-09T17:27:10.729Z,84.49
2023-04-09T17:30:14.779Z,84.39
2023-04-09T17:33:23.169Z,84.79
2023-04-09T17:36:28.142Z,84.77
2023-04-09T17:39:31.564Z,84.64
2023-04-09T17:42:36.353Z,83.52
2023-04-09T17:45:39.596Z,83.96
2023-04-09T17:48:43.305Z,83.89
2023-04-09T17:51:46.652Z,83.90
2023-04-09T17:54:51.196Z,83.65
2023-04-09T17:57:56.073Z,84.10
2023-04-09T18:00:59.834Z,83.61
2023-04-09T18:04:03.612Z,83.96
2023-04-09T18:07:07.339Z,83.89
2023-04-09T18:10:11.555Z,83.76
2023-04-09T18:13:16.992Z,84.31
2023-04-09T18:16:23.426Z,84.17
2023-04-09T18:19:27.009Z,83.28
2023-04-09T18:22:30.796Z,84.09
2023-04-09T18:25:34.532Z,84.30
2023-04-09T18:28:39.597Z,84.34
2023-04-09T18:31:43.322Z,83.88
2023-04-09T18:34:47.795Z,83.15
2023-04-09T18:37:51.252Z,83.22
2023-04-09T18:40:56.681Z,82.75
2023-04-09T18:44:02.193Z,82.86
2023-04-09T18:47:06.051Z,82.12
2023-04-09T18:50:10.041Z,82.44
2023-04-09T18:53:13.872Z,82.49
2023-04-09T18:56:17.406Z,83.22
2023-04-09T18:59:22.967Z,84.01
2023-04-09T19:02:26.800Z,83.51
2023-04-09T19:05:31.848Z,83.98
2023-04-09T19:08:38.406Z,83.70
2023-04-09T19:11:41.978Z,84.58
2023-04-09T19:14:47.337Z,84.52
2023-04-09T19:17:51.242Z,84.63
2023-04-09T19:20:54.845Z,84.53
2023-04-09T19:24:00.601Z,85.35
2023-04-09T19:27:09.643Z,84.63
2023-04-09T19:30:14.880Z,84.20
2023-04-09T19:33:18.985Z,84.43
2023-04-09T19:36:22.739Z,84.67
2023-04-09T19:39:26.340Z,84.06
2023-04-09T19:42:30.521Z,85.02
2023-04-09T19:45:35.386Z,85.04
2023-04-09T19:48:40.949Z,83.90
2023-04-09T19:51:44.368Z,84.00
2023-04-09T19:54:47.847Z,83.67
2023-04-09T19:57:51.902Z,84.32
2023-04-09T20:00:56.770Z,84.42
2023-04-09T20:04:01.272Z,84.03
2023-04-09T20:07:05.522Z,84.12
2023-04-09T20:10:10.606Z,84.56
2023-04-09T20:13:14.380Z,84.76
2023-04-09T20:16:19.220Z,84.59
2023-04-09T20:19:22.970Z,83.71
2023-04-09T20:22:26.394Z,83.77
2023-04-09T20:25:34.727Z,84.20
2023-04-09T20:28:38.941Z,85.54
2023-04-09T20:31:44.865Z,86.17
2023-04-09T20:34:48.283Z,86.25
2023-04-09T20:37:51.937Z,86.37
2023-04-09T20:40:55.237Z,86.48
2023-04-09T20:43:59.087Z,86.68
2023-04-09T20:47:04.253Z,86.95
2023-04-09T20:50:08.586Z,87.07
2023-04-09T20:53:11.960Z,86.75
2023-04-09T20:56:15.352Z,87.28
2023-04-09T20:59:19.836Z,87.13
2023-04-09T21:02:25.010Z,87.82
2023-04-09T21:05:28.352Z,87.70
2023-04-09T21:08:34.308Z,88.66
2023-04-09T21:11:37.982Z,88.86
2023-04-09T21:14:41.397Z,89.07
2023-04-09T21:17:46.387Z,89.24
2023-04-09T21:20:51.461Z,89.47
2023-04-09T21:23:55.062Z,89.40
2023-04-09T21:26:59.090Z,89.90
2023-04-09T21:30:02.803Z,89.57
2023-04-09T21:33:09.833Z,89.68
2023-04-09T21:36:13.314Z,90.09
2023-04-09T21:39:18.299Z,89.97
2023-04-09T21:42:22.080Z,89.81
2023-04-09T21:45:25.886Z,89.22
2023-04-09T21:48:31.850Z,89.17
2023-04-09T21:51:35.232Z,89.25
2023-04-09T21:54:38.781Z,89.62
2023-04-09T21:57:42.470Z,89.19
2023-04-09T22:00:45.855Z,89.04
2023-04-09T22:03:51.137Z,89.17
2023-04-09T22:06:54.702Z,89.75
2023-04-09T22:09:59.847Z,89.54
2023-04-09T22:13:03.218Z,89.88
2023-04-09T22:16:07.515Z,89.96
2023-04-09T22:19:14.137Z,90.19
2023-04-09T22:22:18.184Z,89.79
2023-04-09T22:25:22.344Z,89.89
2023-04-09T22:28:26.201Z,89.79
2023-04-09T22:31:29.706Z,89.49
2023-04-09T22:34:34.456Z,89.43
2023-04-09T22:37:38.043Z,89.47
2023-04-09T22:40:41.796Z,88.37
2023-04-09T22:43:45.171Z,88.77
2023-04-09T22:46:48.893Z,88.20
2023-04-09T22:49:55.627Z,88.11
2023-04-09T22:53:00.510Z,88.73
2023-04-09T22:56:04.323Z,88.33
2023-04-09T22:59:07.847Z,88.89
2023-04-09T23:02:11.522Z,88.88
2023-04-09T23:05:20.460Z,89.31
2023-04-09T23:08:23.744Z,89.12
2023-04-09T23:11:27.968Z,89.33
2023-04-09T23:14:31.611Z,89.13
2023-04-09T23:17:35.398Z,89.42
2023-04-09T23:20:40.418Z,89.58
2023-04-09T23:23:44.364Z,89.74
2023-04-09T23:26:47.764Z,89.93
2023-04-09T23:29:51.417Z,90.03
2023-04-09T23:32:57.432Z,90.20
2023-04-09T23:36:02.547Z,89.77
2023-04-09T23:39:06.204Z,90.25
2023-04-09T23:42:09.482Z,90.68
2023-04-09T23:45:16.285Z,90.77
2023-04-09T23:48:19.743Z,90.98
2023-04-09T23:51:24.580Z,91.08
2023-04-09T23:54:28.431Z,90.58
2023-04-09T23:57:31.815Z,90.95
